ETD217 VIDP-OMAA
Flight info
| Callsign | ETD217 |
|---|---|
| Flight time | 3h 5m |
| Altitude | 38000 |
| Route | SURAM7G SURAM G333 MERUN G452 RK G214 PG J132 BIVIN R462 MIXAM P899 ROVOS |
| Aircraft | A35K/H-SDE2E3GHIJ3J4J5LM1ORWXY/LB1D1 |
Departure
| Time | 2026-05-05 09:05 |
|---|---|
| Airport | Indira Gandhi International Airport (VIDP) |
Arrival
| Time | 2026-05-05 12:11 |
|---|---|
| Airport | Zayed International Airport (OMAA) |
| Time | Latitude | Longitude | Altitude | Speed | Heading |
|---|---|---|---|---|---|
| 2026-05-05 08:47 | 28.55234 | 77.08661 | 749 ft | 0 kts | 15° |
| 2026-05-05 08:55 | 28.55221 | 77.08657 | 744 ft | 4 kts | 12° |
| 2026-05-05 08:55 | 28.55195 | 77.08652 | 744 ft | 4 kts | 3° |
| 2026-05-05 08:56 | 28.55169 | 77.08653 | 745 ft | 4 kts | 349° |
| 2026-05-05 08:56 | 28.55145 | 77.08660 | 747 ft | 4 kts | 329° |
| 2026-05-05 08:56 | 28.55128 | 77.08675 | 745 ft | 5 kts | 298° |
| 2026-05-05 08:56 | 28.55124 | 77.08685 | 747 ft | 4 kts | 285° |
| 2026-05-05 08:59 | 28.55127 | 77.08673 | 745 ft | 3 kts | 285° |
| 2026-05-05 08:59 | 28.55135 | 77.08637 | 745 ft | 6 kts | 285° |
| 2026-05-05 08:59 | 28.55149 | 77.08577 | 747 ft | 9 kts | 282° |
| 2026-05-05 09:00 | 28.55142 | 77.08498 | 745 ft | 11 kts | 248° |
| 2026-05-05 09:00 | 28.55103 | 77.08413 | 744 ft | 13 kts | 241° |
| 2026-05-05 09:00 | 28.55040 | 77.08337 | 745 ft | 14 kts | 205° |
| 2026-05-05 09:00 | 28.54951 | 77.08295 | 747 ft | 14 kts | 221° |
| 2026-05-05 09:01 | 28.54941 | 77.08191 | 744 ft | 15 kts | 283° |
| 2026-05-05 09:01 | 28.54969 | 77.08066 | 744 ft | 17 kts | 284° |
| 2026-05-05 09:01 | 28.55003 | 77.07923 | 743 ft | 20 kts | 285° |
| 2026-05-05 09:01 | 28.55043 | 77.07763 | 741 ft | 22 kts | 286° |
| 2026-05-05 09:02 | 28.55083 | 77.07587 | 742 ft | 24 kts | 284° |
| 2026-05-05 09:02 | 28.55127 | 77.07400 | 740 ft | 26 kts | 287° |
| 2026-05-05 09:02 | 28.55174 | 77.07194 | 738 ft | 27 kts | 282° |
| 2026-05-05 09:02 | 28.55211 | 77.07017 | 737 ft | 20 kts | 284° |
| 2026-05-05 09:03 | 28.55201 | 77.06894 | 735 ft | 15 kts | 221° |
| 2026-05-05 09:03 | 28.55097 | 77.06856 | 735 ft | 16 kts | 194° |
| 2026-05-05 09:03 | 28.54982 | 77.06822 | 735 ft | 18 kts | 194° |
| 2026-05-05 09:03 | 28.54873 | 77.06792 | 735 ft | 8 kts | 193° |
| 2026-05-05 09:04 | 28.54861 | 77.06789 | 735 ft | 3 kts | 193° |
| 2026-05-05 09:04 | 28.54816 | 77.06778 | 735 ft | 10 kts | 192° |
| 2026-05-05 09:04 | 28.54728 | 77.06764 | 736 ft | 15 kts | 175° |
| 2026-05-05 09:04 | 28.54660 | 77.06852 | 737 ft | 19 kts | 107° |
| 2026-05-05 09:05 | 28.54590 | 77.07169 | 741 ft | 71 kts | 103° |
| 2026-05-05 09:05 | 28.54422 | 77.07947 | 745 ft | 129 kts | 103° |
| 2026-05-05 09:05 | 28.54166 | 77.09125 | 792 ft | 175 kts | 104° |
| 2026-05-05 09:05 | 28.53876 | 77.10456 | 1510 ft | 171 kts | 103° |
| 2026-05-05 09:06 | 28.53707 | 77.11799 | 2103 ft | 178 kts | 90° |
| 2026-05-05 09:06 | 28.53343 | 77.13214 | 2341 ft | 203 kts | 126° |
| 2026-05-05 09:06 | 28.52098 | 77.14088 | 2568 ft | 227 kts | 167° |
| 2026-05-05 09:06 | 28.50502 | 77.13809 | 2987 ft | 247 kts | 205° |
| 2026-05-05 09:07 | 28.49028 | 77.12647 | 3406 ft | 265 kts | 213° |
| 2026-05-05 09:07 | 28.47398 | 77.11628 | 4077 ft | 269 kts | 201° |
| 2026-05-05 09:07 | 28.45620 | 77.10959 | 4866 ft | 270 kts | 194° |
| 2026-05-05 09:07 | 28.43772 | 77.10516 | 5597 ft | 273 kts | 190° |
| 2026-05-05 09:08 | 28.41887 | 77.10193 | 6329 ft | 276 kts | 191° |
| 2026-05-05 09:08 | 28.40057 | 77.09532 | 7046 ft | 277 kts | 208° |
| 2026-05-05 09:08 | 28.38536 | 77.08199 | 7783 ft | 278 kts | 232° |
| 2026-05-05 09:08 | 28.37675 | 77.06261 | 8622 ft | 276 kts | 258° |
| 2026-05-05 09:09 | 28.37695 | 77.04101 | 9486 ft | 276 kts | 285° |
| 2026-05-05 09:09 | 28.38316 | 77.02021 | 10242 ft | 282 kts | 291° |
| 2026-05-05 09:09 | 28.39053 | 76.99876 | 10589 ft | 302 kts | 291° |
| 2026-05-05 09:09 | 28.39824 | 76.97609 | 10890 ft | 321 kts | 290° |
| 2026-05-05 09:10 | 28.40636 | 76.95175 | 11286 ft | 336 kts | 290° |
| 2026-05-05 09:10 | 28.41465 | 76.92664 | 11937 ft | 342 kts | 290° |
| 2026-05-05 09:10 | 28.42303 | 76.90107 | 12623 ft | 347 kts | 290° |
| 2026-05-05 09:10 | 28.43147 | 76.87521 | 13313 ft | 351 kts | 290° |
| 2026-05-05 09:11 | 28.44003 | 76.84897 | 13977 ft | 355 kts | 290° |
| 2026-05-05 09:11 | 28.44865 | 76.82250 | 14598 ft | 359 kts | 290° |
| 2026-05-05 09:11 | 28.45733 | 76.79578 | 15204 ft | 362 kts | 290° |
| 2026-05-05 09:11 | 28.46608 | 76.76883 | 15833 ft | 365 kts | 290° |
| 2026-05-05 09:12 | 28.47493 | 76.74155 | 16449 ft | 369 kts | 290° |
| 2026-05-05 09:12 | 28.48373 | 76.71438 | 17064 ft | 372 kts | 290° |
| 2026-05-05 09:12 | 28.49273 | 76.68659 | 17683 ft | 376 kts | 290° |
| 2026-05-05 09:12 | 28.50179 | 76.65858 | 18276 ft | 380 kts | 290° |
| 2026-05-05 09:13 | 28.51096 | 76.63020 | 18790 ft | 384 kts | 290° |
| 2026-05-05 09:13 | 28.52023 | 76.60151 | 19317 ft | 388 kts | 290° |
| 2026-05-05 09:13 | 28.52957 | 76.57256 | 19866 ft | 391 kts | 290° |
| 2026-05-05 09:13 | 28.53899 | 76.54336 | 20421 ft | 395 kts | 290° |
| 2026-05-05 09:14 | 28.54847 | 76.51395 | 20983 ft | 399 kts | 290° |
| 2026-05-05 09:14 | 28.55806 | 76.48416 | 21517 ft | 402 kts | 290° |
| 2026-05-05 09:14 | 28.56772 | 76.45413 | 22073 ft | 406 kts | 290° |
| 2026-05-05 09:14 | 28.57746 | 76.42381 | 22656 ft | 410 kts | 290° |
| 2026-05-05 09:15 | 28.58727 | 76.39327 | 23240 ft | 413 kts | 290° |
| 2026-05-05 09:15 | 28.59717 | 76.36239 | 23766 ft | 416 kts | 290° |
| 2026-05-05 09:15 | 28.60713 | 76.33133 | 24316 ft | 418 kts | 290° |
| 2026-05-05 09:15 | 28.61709 | 76.30022 | 24854 ft | 420 kts | 290° |
| 2026-05-05 09:16 | 28.62711 | 76.26892 | 25419 ft | 421 kts | 290° |
| 2026-05-05 09:16 | 28.63703 | 76.23787 | 25954 ft | 423 kts | 290° |
| 2026-05-05 09:16 | 28.64709 | 76.20635 | 26480 ft | 425 kts | 290° |
| 2026-05-05 09:16 | 28.65724 | 76.17455 | 26998 ft | 427 kts | 290° |
| 2026-05-05 09:17 | 28.66739 | 76.14269 | 27518 ft | 429 kts | 290° |
| 2026-05-05 09:17 | 28.67759 | 76.11068 | 28020 ft | 431 kts | 290° |
| 2026-05-05 09:17 | 28.68784 | 76.07844 | 28517 ft | 434 kts | 289° |
| 2026-05-05 09:17 | 28.69815 | 76.04601 | 29005 ft | 436 kts | 289° |
| 2026-05-05 09:18 | 28.70852 | 76.01335 | 29497 ft | 439 kts | 289° |
| 2026-05-05 09:18 | 28.71889 | 75.98064 | 29953 ft | 441 kts | 289° |
| 2026-05-05 09:18 | 28.72935 | 75.94764 | 30348 ft | 443 kts | 289° |
| 2026-05-05 09:18 | 28.73921 | 75.91432 | 30751 ft | 444 kts | 285° |
| 2026-05-05 09:19 | 28.74539 | 75.87982 | 31150 ft | 446 kts | 277° |
| 2026-05-05 09:19 | 28.74688 | 75.84444 | 31544 ft | 448 kts | 270° |
| 2026-05-05 09:19 | 28.74551 | 75.80930 | 31897 ft | 451 kts | 267° |
| 2026-05-05 09:19 | 28.74260 | 75.77371 | 32239 ft | 453 kts | 266° |
| 2026-05-05 09:20 | 28.73900 | 75.73785 | 32579 ft | 455 kts | 265° |
| 2026-05-05 09:20 | 28.73526 | 75.70196 | 32897 ft | 457 kts | 265° |
| 2026-05-05 09:20 | 28.73160 | 75.66588 | 33229 ft | 458 kts | 266° |
| 2026-05-05 09:20 | 28.72812 | 75.62985 | 33652 ft | 457 kts | 266° |
| 2026-05-05 09:21 | 28.72479 | 75.59396 | 34104 ft | 454 kts | 266° |
| 2026-05-05 09:21 | 28.72157 | 75.55830 | 34498 ft | 452 kts | 267° |
| 2026-05-05 09:21 | 28.71840 | 75.52271 | 34869 ft | 450 kts | 267° |
| 2026-05-05 09:21 | 28.71526 | 75.48730 | 35215 ft | 449 kts | 267° |
| 2026-05-05 09:22 | 28.71212 | 75.45193 | 35570 ft | 447 kts | 268° |
| 2026-05-05 09:22 | 28.70899 | 75.41672 | 35897 ft | 446 kts | 268° |
| 2026-05-05 09:22 | 28.70584 | 75.38163 | 36213 ft | 445 kts | 268° |
| 2026-05-05 09:22 | 28.70268 | 75.34655 | 36528 ft | 444 kts | 268° |
| 2026-05-05 09:23 | 28.69957 | 75.31203 | 36830 ft | 443 kts | 268° |
| 2026-05-05 09:23 | 28.69640 | 75.27718 | 37141 ft | 442 kts | 268° |
| 2026-05-05 09:23 | 28.69323 | 75.24237 | 37424 ft | 441 kts | 268° |
| 2026-05-05 09:23 | 28.69007 | 75.20766 | 37711 ft | 440 kts | 268° |
| 2026-05-05 09:24 | 28.68689 | 75.17291 | 37836 ft | 442 kts | 268° |
| 2026-05-05 09:24 | 28.68050 | 75.10314 | 37841 ft | 443 kts | 268° |
| 2026-05-05 09:25 | 28.67404 | 75.03313 | 37840 ft | 444 kts | 268° |
| 2026-05-05 09:25 | 28.66753 | 74.96309 | 37836 ft | 444 kts | 268° |
| 2026-05-05 09:26 | 28.66103 | 74.89353 | 37835 ft | 445 kts | 268° |
| 2026-05-05 09:26 | 28.65443 | 74.82340 | 37833 ft | 445 kts | 268° |
| 2026-05-05 09:27 | 28.64781 | 74.75333 | 37834 ft | 445 kts | 268° |
| 2026-05-05 09:27 | 28.64115 | 74.68324 | 37827 ft | 446 kts | 268° |
| 2026-05-05 09:28 | 28.63557 | 74.62487 | 37826 ft | 446 kts | 268° |
| 2026-05-05 09:28 | 28.62773 | 74.54324 | 37821 ft | 446 kts | 268° |
| 2026-05-05 09:29 | 28.62096 | 74.47313 | 37822 ft | 446 kts | 268° |
| 2026-05-05 09:29 | 28.61529 | 74.41482 | 37825 ft | 446 kts | 268° |
| 2026-05-05 09:30 | 28.60844 | 74.34465 | 37823 ft | 446 kts | 268° |
| 2026-05-05 09:30 | 28.60156 | 74.27449 | 37823 ft | 446 kts | 268° |
| 2026-05-05 09:31 | 28.59462 | 74.20423 | 37824 ft | 446 kts | 268° |
| 2026-05-05 09:31 | 28.58769 | 74.13430 | 37823 ft | 446 kts | 268° |
| 2026-05-05 09:32 | 28.58069 | 74.06411 | 37824 ft | 446 kts | 268° |
| 2026-05-05 09:32 | 28.57366 | 73.99397 | 37815 ft | 446 kts | 268° |
| 2026-05-05 09:33 | 28.56663 | 73.92420 | 37819 ft | 446 kts | 268° |
| 2026-05-05 09:33 | 28.55953 | 73.85416 | 37810 ft | 446 kts | 268° |
| 2026-05-05 09:34 | 28.55241 | 73.78412 | 37813 ft | 446 kts | 268° |
| 2026-05-05 09:34 | 28.54797 | 73.71404 | 37805 ft | 443 kts | 272° |
| 2026-05-05 09:35 | 28.54597 | 73.64395 | 37804 ft | 443 kts | 272° |
| 2026-05-05 09:35 | 28.54232 | 73.53934 | 37805 ft | 443 kts | 271° |
| 2026-05-05 09:36 | 28.53933 | 73.46933 | 37805 ft | 443 kts | 271° |
| 2026-05-05 09:36 | 28.53622 | 73.39923 | 37806 ft | 443 kts | 271° |
| 2026-05-05 09:37 | 28.53309 | 73.32927 | 37808 ft | 443 kts | 271° |
| 2026-05-05 09:37 | 28.52994 | 73.25925 | 37807 ft | 443 kts | 271° |
| 2026-05-05 09:38 | 28.52677 | 73.18931 | 37805 ft | 443 kts | 271° |
| 2026-05-05 09:38 | 28.52356 | 73.11935 | 37807 ft | 443 kts | 271° |
| 2026-05-05 09:39 | 28.52033 | 73.04979 | 37807 ft | 442 kts | 271° |
| 2026-05-05 09:39 | 28.51705 | 72.97982 | 37806 ft | 442 kts | 271° |
| 2026-05-05 09:40 | 28.51374 | 72.91005 | 37802 ft | 442 kts | 271° |
| 2026-05-05 09:40 | 28.51039 | 72.84028 | 37803 ft | 442 kts | 271° |
| 2026-05-05 09:41 | 28.50701 | 72.77051 | 37807 ft | 441 kts | 271° |
| 2026-05-05 09:41 | 28.50362 | 72.70126 | 37800 ft | 441 kts | 271° |
| 2026-05-05 09:42 | 28.50018 | 72.63166 | 37798 ft | 441 kts | 271° |
| 2026-05-05 09:42 | 28.49670 | 72.56207 | 37801 ft | 441 kts | 271° |
| 2026-05-05 09:43 | 28.49318 | 72.49244 | 37801 ft | 440 kts | 271° |
| 2026-05-05 09:43 | 28.48963 | 72.42297 | 37799 ft | 440 kts | 271° |
| 2026-05-05 09:44 | 28.48604 | 72.35339 | 37798 ft | 440 kts | 271° |
| 2026-05-05 09:44 | 28.48245 | 72.28439 | 37801 ft | 440 kts | 271° |
| 2026-05-05 09:45 | 28.47885 | 72.21498 | 37799 ft | 440 kts | 271° |
| 2026-05-05 09:45 | 28.47532 | 72.14557 | 37801 ft | 439 kts | 271° |
| 2026-05-05 09:46 | 28.47176 | 72.07617 | 37805 ft | 439 kts | 271° |
| 2026-05-05 09:46 | 28.46817 | 72.00687 | 37799 ft | 439 kts | 271° |
| 2026-05-05 09:47 | 28.46453 | 71.93757 | 37808 ft | 439 kts | 271° |
| 2026-05-05 09:47 | 28.46088 | 71.86878 | 37806 ft | 438 kts | 271° |
| 2026-05-05 09:48 | 28.45718 | 71.79964 | 37811 ft | 438 kts | 270° |
| 2026-05-05 09:48 | 28.45345 | 71.73055 | 37805 ft | 438 kts | 270° |
| 2026-05-05 09:49 | 28.44968 | 71.66136 | 37807 ft | 438 kts | 270° |
| 2026-05-05 09:49 | 28.44588 | 71.59230 | 37795 ft | 437 kts | 270° |
| 2026-05-05 09:50 | 28.44207 | 71.52380 | 37807 ft | 437 kts | 270° |
| 2026-05-05 09:50 | 28.43820 | 71.45472 | 37803 ft | 437 kts | 270° |
| 2026-05-05 09:51 | 28.43431 | 71.38588 | 37808 ft | 437 kts | 270° |
| 2026-05-05 09:51 | 28.43038 | 71.31702 | 37812 ft | 436 kts | 270° |
| 2026-05-05 09:52 | 28.42642 | 71.24821 | 37807 ft | 436 kts | 270° |
| 2026-05-05 09:52 | 28.42243 | 71.17942 | 37806 ft | 436 kts | 270° |
| 2026-05-05 09:53 | 28.41842 | 71.11109 | 37808 ft | 436 kts | 270° |
| 2026-05-05 09:53 | 28.41435 | 71.04220 | 37805 ft | 436 kts | 270° |
| 2026-05-05 09:54 | 28.41025 | 70.97345 | 37804 ft | 436 kts | 270° |
| 2026-05-05 09:54 | 28.40612 | 70.90470 | 37805 ft | 436 kts | 270° |
| 2026-05-05 09:55 | 28.40196 | 70.83606 | 37800 ft | 436 kts | 270° |
| 2026-05-05 09:55 | 28.39776 | 70.76728 | 37805 ft | 436 kts | 270° |
| 2026-05-05 09:56 | 28.39356 | 70.69910 | 37803 ft | 436 kts | 270° |
| 2026-05-05 09:56 | 28.38929 | 70.63038 | 37808 ft | 436 kts | 270° |
| 2026-05-05 09:57 | 28.38498 | 70.56164 | 37805 ft | 436 kts | 270° |
| 2026-05-05 09:57 | 28.38065 | 70.49297 | 37805 ft | 436 kts | 270° |
| 2026-05-05 09:58 | 28.37628 | 70.42431 | 37802 ft | 436 kts | 270° |
| 2026-05-05 09:58 | 28.37188 | 70.35566 | 37802 ft | 436 kts | 270° |
| 2026-05-05 09:59 | 28.36519 | 70.28751 | 37804 ft | 441 kts | 262° |
| 2026-05-05 09:59 | 28.34459 | 70.22127 | 37797 ft | 449 kts | 252° |
| 2026-05-05 10:00 | 28.31767 | 70.15700 | 37793 ft | 452 kts | 250° |
| 2026-05-05 10:00 | 28.28974 | 70.09306 | 37791 ft | 452 kts | 250° |
| 2026-05-05 10:01 | 28.26192 | 70.02904 | 37786 ft | 452 kts | 250° |
| 2026-05-05 10:01 | 28.23430 | 69.96504 | 37791 ft | 452 kts | 250° |
| 2026-05-05 10:02 | 28.20675 | 69.90108 | 37792 ft | 452 kts | 250° |
| 2026-05-05 10:02 | 28.17930 | 69.83745 | 37788 ft | 452 kts | 250° |
| 2026-05-05 10:03 | 28.15164 | 69.77345 | 37786 ft | 452 kts | 250° |
| 2026-05-05 10:03 | 28.12393 | 69.70944 | 37786 ft | 452 kts | 250° |
| 2026-05-05 10:04 | 28.09622 | 69.64554 | 37784 ft | 452 kts | 250° |
| 2026-05-05 10:04 | 28.06845 | 69.58159 | 37786 ft | 452 kts | 250° |
| 2026-05-05 10:05 | 28.04069 | 69.51777 | 37785 ft | 452 kts | 250° |
| 2026-05-05 10:05 | 28.01291 | 69.45402 | 37784 ft | 452 kts | 250° |
| 2026-05-05 10:06 | 27.98528 | 69.39070 | 37781 ft | 451 kts | 250° |
| 2026-05-05 10:06 | 27.95744 | 69.32702 | 37779 ft | 451 kts | 249° |
| 2026-05-05 10:07 | 27.92957 | 69.26333 | 37780 ft | 451 kts | 249° |
| 2026-05-05 10:07 | 27.90171 | 69.19979 | 37774 ft | 451 kts | 249° |
| 2026-05-05 10:08 | 27.87363 | 69.13629 | 37777 ft | 451 kts | 249° |
| 2026-05-05 10:08 | 27.84543 | 69.07281 | 37776 ft | 451 kts | 249° |
| 2026-05-05 10:09 | 27.81744 | 69.00984 | 37770 ft | 451 kts | 249° |
| 2026-05-05 10:09 | 27.78925 | 68.94645 | 37776 ft | 451 kts | 249° |
| 2026-05-05 10:10 | 27.76102 | 68.88306 | 37776 ft | 451 kts | 249° |
| 2026-05-05 10:10 | 27.73325 | 68.81965 | 37768 ft | 449 kts | 252° |
| 2026-05-05 10:11 | 27.71541 | 68.75302 | 37770 ft | 441 kts | 262° |
| 2026-05-05 10:11 | 27.70368 | 68.68520 | 37770 ft | 440 kts | 264° |
| 2026-05-05 10:12 | 27.69286 | 68.61730 | 37771 ft | 440 kts | 264° |
| 2026-05-05 10:12 | 27.68198 | 68.54943 | 37771 ft | 440 kts | 264° |
| 2026-05-05 10:13 | 27.67088 | 68.48148 | 37768 ft | 440 kts | 263° |
| 2026-05-05 10:13 | 27.65976 | 68.41406 | 37774 ft | 440 kts | 263° |
| 2026-05-05 10:14 | 27.64852 | 68.34619 | 37772 ft | 440 kts | 263° |
| 2026-05-05 10:14 | 27.63726 | 68.27834 | 37771 ft | 440 kts | 263° |
| 2026-05-05 10:15 | 27.62597 | 68.21056 | 37773 ft | 440 kts | 263° |
| 2026-05-05 10:15 | 27.61472 | 68.14315 | 37771 ft | 440 kts | 263° |
| 2026-05-05 10:16 | 27.60337 | 68.07537 | 37769 ft | 440 kts | 263° |
| 2026-05-05 10:16 | 27.59198 | 68.00761 | 37770 ft | 440 kts | 263° |
| 2026-05-05 10:17 | 27.58054 | 67.93972 | 37768 ft | 440 kts | 263° |
| 2026-05-05 10:17 | 27.57102 | 67.88340 | 37774 ft | 440 kts | 263° |
| 2026-05-05 10:18 | 27.55954 | 67.81563 | 37771 ft | 440 kts | 263° |
| 2026-05-05 10:18 | 27.54802 | 67.74791 | 37774 ft | 440 kts | 263° |
| 2026-05-05 10:19 | 27.53648 | 67.68020 | 37779 ft | 440 kts | 263° |
| 2026-05-05 10:19 | 27.52487 | 67.61239 | 37799 ft | 440 kts | 263° |
| 2026-05-05 10:20 | 27.51333 | 67.54508 | 37791 ft | 440 kts | 263° |
| 2026-05-05 10:20 | 27.50169 | 67.47744 | 37801 ft | 440 kts | 263° |
| 2026-05-05 10:21 | 27.49001 | 67.40977 | 37821 ft | 440 kts | 263° |
| 2026-05-05 10:21 | 27.47830 | 67.34217 | 37820 ft | 440 kts | 263° |
| 2026-05-05 10:22 | 27.46654 | 67.27447 | 37841 ft | 440 kts | 263° |
| 2026-05-05 10:22 | 27.45483 | 67.20688 | 37838 ft | 440 kts | 263° |
| 2026-05-05 10:23 | 27.44440 | 67.13942 | 37854 ft | 439 kts | 264° |
| 2026-05-05 10:23 | 27.43442 | 67.07160 | 37859 ft | 440 kts | 264° |
| 2026-05-05 10:24 | 27.42417 | 67.00350 | 37856 ft | 440 kts | 264° |
| 2026-05-05 10:24 | 27.41377 | 66.93565 | 37860 ft | 440 kts | 264° |
| 2026-05-05 10:25 | 27.40327 | 66.86751 | 37853 ft | 441 kts | 264° |
| 2026-05-05 10:25 | 27.39272 | 66.79949 | 37853 ft | 440 kts | 264° |
| 2026-05-05 10:26 | 27.38223 | 66.73202 | 37847 ft | 440 kts | 264° |
| 2026-05-05 10:26 | 27.37164 | 66.66402 | 37854 ft | 440 kts | 264° |
| 2026-05-05 10:27 | 27.36098 | 66.59617 | 37841 ft | 439 kts | 264° |
| 2026-05-05 10:27 | 27.35045 | 66.52888 | 37849 ft | 440 kts | 264° |
| 2026-05-05 10:28 | 27.33982 | 66.46101 | 37844 ft | 441 kts | 263° |
| 2026-05-05 10:28 | 27.32907 | 66.39290 | 37842 ft | 441 kts | 263° |
| 2026-05-05 10:29 | 27.31829 | 66.32486 | 37843 ft | 441 kts | 263° |
| 2026-05-05 10:29 | 27.30755 | 66.25733 | 37848 ft | 442 kts | 263° |
| 2026-05-05 10:30 | 27.29669 | 66.18924 | 37838 ft | 441 kts | 263° |
| 2026-05-05 10:30 | 27.28581 | 66.12119 | 37836 ft | 441 kts | 263° |
| 2026-05-05 10:31 | 27.27492 | 66.05320 | 37834 ft | 442 kts | 263° |
| 2026-05-05 10:31 | 27.26402 | 65.98526 | 37836 ft | 442 kts | 263° |
| 2026-05-05 10:32 | 27.25302 | 65.91729 | 37832 ft | 442 kts | 263° |
| 2026-05-05 10:32 | 27.24206 | 65.84979 | 37830 ft | 442 kts | 263° |
| 2026-05-05 10:33 | 27.23101 | 65.78178 | 37842 ft | 442 kts | 263° |
| 2026-05-05 10:33 | 27.21991 | 65.71378 | 37839 ft | 442 kts | 263° |
| 2026-05-05 10:34 | 27.20877 | 65.64576 | 37844 ft | 442 kts | 263° |
| 2026-05-05 10:34 | 27.19760 | 65.57778 | 37846 ft | 442 kts | 263° |
| 2026-05-05 10:35 | 27.18638 | 65.50968 | 37853 ft | 443 kts | 263° |
| 2026-05-05 10:35 | 27.17521 | 65.44210 | 37849 ft | 443 kts | 263° |
| 2026-05-05 10:36 | 27.16394 | 65.37406 | 37849 ft | 443 kts | 263° |
| 2026-05-05 10:36 | 27.15265 | 65.30605 | 37850 ft | 443 kts | 263° |
| 2026-05-05 10:37 | 27.14131 | 65.23805 | 37852 ft | 443 kts | 263° |
| 2026-05-05 10:37 | 27.12993 | 65.17001 | 37855 ft | 443 kts | 263° |
| 2026-05-05 10:38 | 27.11857 | 65.10234 | 37852 ft | 443 kts | 263° |
| 2026-05-05 10:38 | 27.10713 | 65.03433 | 37863 ft | 443 kts | 263° |
| 2026-05-05 10:39 | 27.09565 | 64.96631 | 37863 ft | 444 kts | 263° |
| 2026-05-05 10:39 | 27.08412 | 64.89828 | 37860 ft | 443 kts | 263° |
| 2026-05-05 10:40 | 27.07265 | 64.83073 | 37858 ft | 443 kts | 263° |
| 2026-05-05 10:40 | 27.06108 | 64.76275 | 37867 ft | 444 kts | 263° |
| 2026-05-05 10:41 | 27.04946 | 64.69476 | 37861 ft | 444 kts | 263° |
| 2026-05-05 10:41 | 27.03780 | 64.62672 | 37856 ft | 444 kts | 262° |
| 2026-05-05 10:42 | 27.02025 | 64.52466 | 37858 ft | 444 kts | 262° |
| 2026-05-05 10:43 | 27.00857 | 64.45702 | 37859 ft | 444 kts | 262° |
| 2026-05-05 10:43 | 26.99678 | 64.38898 | 37858 ft | 444 kts | 262° |
| 2026-05-05 10:44 | 26.98498 | 64.32101 | 37854 ft | 444 kts | 262° |
| 2026-05-05 10:44 | 26.97314 | 64.25306 | 37849 ft | 444 kts | 262° |
| 2026-05-05 10:45 | 26.96061 | 64.18525 | 37851 ft | 446 kts | 258° |
| 2026-05-05 10:45 | 26.93613 | 64.12083 | 37850 ft | 456 kts | 243° |
| 2026-05-05 10:46 | 26.89706 | 64.06455 | 37844 ft | 463 kts | 235° |
| 2026-05-05 10:46 | 26.85413 | 64.01042 | 37838 ft | 465 kts | 234° |
| 2026-05-05 10:47 | 26.81084 | 63.95659 | 37833 ft | 465 kts | 234° |
| 2026-05-05 10:47 | 26.76780 | 63.90257 | 37845 ft | 464 kts | 234° |
| 2026-05-05 10:48 | 26.72497 | 63.84851 | 37834 ft | 464 kts | 234° |
| 2026-05-05 10:48 | 26.68212 | 63.79441 | 37817 ft | 465 kts | 234° |
| 2026-05-05 10:49 | 26.63922 | 63.74033 | 37823 ft | 465 kts | 234° |
| 2026-05-05 10:49 | 26.59631 | 63.68631 | 37820 ft | 465 kts | 234° |
| 2026-05-05 10:50 | 26.55361 | 63.63264 | 37816 ft | 465 kts | 234° |
| 2026-05-05 10:50 | 26.51062 | 63.57868 | 37815 ft | 465 kts | 233° |
| 2026-05-05 10:51 | 26.46755 | 63.52467 | 37804 ft | 465 kts | 233° |
| 2026-05-05 10:51 | 26.42440 | 63.47063 | 37805 ft | 465 kts | 233° |
| 2026-05-05 10:52 | 26.38162 | 63.41711 | 37798 ft | 465 kts | 233° |
| 2026-05-05 10:52 | 26.33859 | 63.36335 | 37792 ft | 465 kts | 233° |
| 2026-05-05 10:53 | 26.29544 | 63.30950 | 37784 ft | 465 kts | 233° |
| 2026-05-05 10:53 | 26.25230 | 63.25574 | 37776 ft | 465 kts | 233° |
| 2026-05-05 10:54 | 26.20917 | 63.20205 | 37772 ft | 465 kts | 233° |
| 2026-05-05 10:54 | 26.16601 | 63.14839 | 37766 ft | 465 kts | 233° |
| 2026-05-05 10:55 | 26.12280 | 63.09474 | 37757 ft | 465 kts | 233° |
| 2026-05-05 10:55 | 26.07989 | 63.04151 | 37757 ft | 465 kts | 233° |
| 2026-05-05 10:56 | 26.03659 | 62.98788 | 37753 ft | 465 kts | 233° |
| 2026-05-05 10:56 | 25.99337 | 62.93440 | 37747 ft | 465 kts | 232° |
| 2026-05-05 10:57 | 25.95016 | 62.88093 | 37747 ft | 465 kts | 233° |
| 2026-05-05 10:57 | 25.90699 | 62.82738 | 37741 ft | 465 kts | 233° |
| 2026-05-05 10:58 | 25.86378 | 62.77389 | 37741 ft | 465 kts | 232° |
| 2026-05-05 10:58 | 25.82053 | 62.72045 | 37745 ft | 465 kts | 232° |
| 2026-05-05 10:59 | 25.77751 | 62.66736 | 37745 ft | 465 kts | 232° |
| 2026-05-05 10:59 | 25.73412 | 62.61388 | 37748 ft | 466 kts | 232° |
| 2026-05-05 11:00 | 25.69076 | 62.56049 | 37749 ft | 466 kts | 232° |
| 2026-05-05 11:00 | 25.64735 | 62.50711 | 37753 ft | 466 kts | 232° |
| 2026-05-05 11:01 | 25.60387 | 62.45372 | 37759 ft | 466 kts | 232° |
| 2026-05-05 11:01 | 25.56044 | 62.40044 | 37763 ft | 466 kts | 232° |
| 2026-05-05 11:02 | 25.51712 | 62.34736 | 37766 ft | 466 kts | 232° |
| 2026-05-05 11:02 | 25.47364 | 62.29413 | 37773 ft | 466 kts | 232° |
| 2026-05-05 11:03 | 25.43007 | 62.24087 | 37774 ft | 466 kts | 232° |
| 2026-05-05 11:03 | 25.38648 | 62.18764 | 37780 ft | 466 kts | 232° |
| 2026-05-05 11:04 | 25.34317 | 62.13482 | 37784 ft | 467 kts | 232° |
| 2026-05-05 11:04 | 25.29957 | 62.08170 | 37779 ft | 466 kts | 232° |
| 2026-05-05 11:05 | 25.25591 | 62.02858 | 37783 ft | 466 kts | 232° |
| 2026-05-05 11:05 | 25.21228 | 61.97555 | 37786 ft | 466 kts | 232° |
| 2026-05-05 11:06 | 25.16869 | 61.92265 | 37784 ft | 465 kts | 232° |
| 2026-05-05 11:06 | 25.12515 | 61.86985 | 37785 ft | 464 kts | 232° |
| 2026-05-05 11:07 | 25.08908 | 61.82602 | 37786 ft | 464 kts | 232° |
| 2026-05-05 11:07 | 25.05328 | 61.76770 | 37795 ft | 456 kts | 246° |
| 2026-05-05 11:08 | 25.02624 | 61.70447 | 37790 ft | 455 kts | 248° |
| 2026-05-05 11:08 | 25.00061 | 61.64053 | 37790 ft | 456 kts | 249° |
| 2026-05-05 11:09 | 24.97501 | 61.57661 | 37790 ft | 456 kts | 249° |
| 2026-05-05 11:09 | 24.94935 | 61.51319 | 37790 ft | 456 kts | 248° |
| 2026-05-05 11:10 | 24.92334 | 61.44930 | 37788 ft | 456 kts | 248° |
| 2026-05-05 11:10 | 24.89773 | 61.38542 | 37794 ft | 456 kts | 249° |
| 2026-05-05 11:11 | 24.87221 | 61.32138 | 37794 ft | 456 kts | 249° |
| 2026-05-05 11:11 | 24.84661 | 61.25738 | 37794 ft | 456 kts | 249° |
| 2026-05-05 11:12 | 24.82092 | 61.19341 | 37790 ft | 456 kts | 248° |
| 2026-05-05 11:12 | 24.79537 | 61.12990 | 37791 ft | 456 kts | 248° |
| 2026-05-05 11:13 | 24.76963 | 61.06601 | 37794 ft | 456 kts | 248° |
| 2026-05-05 11:13 | 24.74385 | 61.00212 | 37790 ft | 457 kts | 248° |
| 2026-05-05 11:14 | 24.71803 | 60.93822 | 37785 ft | 457 kts | 248° |
| 2026-05-05 11:14 | 24.69187 | 60.87454 | 37788 ft | 457 kts | 247° |
| 2026-05-05 11:15 | 24.66446 | 60.81134 | 37788 ft | 458 kts | 246° |
| 2026-05-05 11:15 | 24.63690 | 60.74827 | 37785 ft | 458 kts | 246° |
| 2026-05-05 11:16 | 24.60964 | 60.68551 | 37783 ft | 458 kts | 247° |
| 2026-05-05 11:16 | 24.58224 | 60.62223 | 37786 ft | 458 kts | 247° |
| 2026-05-05 11:17 | 24.55486 | 60.55899 | 37788 ft | 458 kts | 246° |
| 2026-05-05 11:17 | 24.52735 | 60.49570 | 37784 ft | 459 kts | 246° |
| 2026-05-05 11:18 | 24.49984 | 60.43250 | 37786 ft | 459 kts | 246° |
| 2026-05-05 11:18 | 24.47245 | 60.36966 | 37789 ft | 459 kts | 246° |
| 2026-05-05 11:19 | 24.44491 | 60.30653 | 37785 ft | 459 kts | 246° |
| 2026-05-05 11:19 | 24.41724 | 60.24319 | 37781 ft | 459 kts | 246° |
| 2026-05-05 11:20 | 24.38959 | 60.17998 | 37783 ft | 459 kts | 246° |
| 2026-05-05 11:20 | 24.36190 | 60.11678 | 37780 ft | 460 kts | 246° |
| 2026-05-05 11:21 | 24.33422 | 60.05361 | 37780 ft | 460 kts | 246° |
| 2026-05-05 11:21 | 24.30646 | 59.99039 | 37778 ft | 460 kts | 246° |
| 2026-05-05 11:22 | 24.27883 | 59.92760 | 37779 ft | 460 kts | 246° |
| 2026-05-05 11:22 | 24.25099 | 59.86439 | 37779 ft | 460 kts | 246° |
| 2026-05-05 11:23 | 24.22315 | 59.80124 | 37774 ft | 460 kts | 246° |
| 2026-05-05 11:23 | 24.19526 | 59.73807 | 37779 ft | 460 kts | 246° |
| 2026-05-05 11:24 | 24.16733 | 59.67491 | 37773 ft | 461 kts | 246° |
| 2026-05-05 11:24 | 24.13935 | 59.61172 | 37776 ft | 461 kts | 246° |
| 2026-05-05 11:25 | 24.11151 | 59.54891 | 37771 ft | 461 kts | 246° |
| 2026-05-05 11:25 | 24.08344 | 59.48569 | 37769 ft | 461 kts | 246° |
| 2026-05-05 11:26 | 24.05536 | 59.42254 | 37771 ft | 461 kts | 246° |
| 2026-05-05 11:26 | 24.02741 | 59.35986 | 37768 ft | 461 kts | 246° |
| 2026-05-05 11:27 | 23.99924 | 59.29681 | 37763 ft | 461 kts | 246° |
| 2026-05-05 11:27 | 23.97105 | 59.23366 | 37766 ft | 461 kts | 246° |
| 2026-05-05 11:28 | 23.94291 | 59.17058 | 37766 ft | 461 kts | 246° |
| 2026-05-05 11:28 | 23.92209 | 59.10458 | 37764 ft | 459 kts | 257° |
| 2026-05-05 11:29 | 23.90831 | 59.03647 | 37760 ft | 459 kts | 259° |
| 2026-05-05 11:29 | 23.89560 | 58.96806 | 37753 ft | 460 kts | 259° |
| 2026-05-05 11:30 | 23.88287 | 58.89957 | 37764 ft | 460 kts | 259° |
| 2026-05-05 11:30 | 23.86994 | 58.83111 | 37744 ft | 460 kts | 259° |
| 2026-05-05 11:31 | 23.85696 | 58.76301 | 37752 ft | 460 kts | 259° |
| 2026-05-05 11:31 | 23.84387 | 58.69461 | 37736 ft | 460 kts | 259° |
| 2026-05-05 11:32 | 23.83075 | 58.62614 | 37741 ft | 460 kts | 259° |
| 2026-05-05 11:32 | 23.81760 | 58.55768 | 37736 ft | 460 kts | 259° |
| 2026-05-05 11:33 | 23.80443 | 58.48928 | 37738 ft | 460 kts | 259° |
| 2026-05-05 11:33 | 23.79123 | 58.42087 | 37731 ft | 460 kts | 258° |
| 2026-05-05 11:34 | 23.77797 | 58.35236 | 37725 ft | 460 kts | 258° |
| 2026-05-05 11:34 | 23.76480 | 58.28447 | 37716 ft | 460 kts | 258° |
| 2026-05-05 11:35 | 23.75149 | 58.21604 | 37715 ft | 461 kts | 258° |
| 2026-05-05 11:35 | 23.73816 | 58.14762 | 37721 ft | 461 kts | 258° |
| 2026-05-05 11:36 | 23.72478 | 58.07918 | 37731 ft | 460 kts | 258° |
| 2026-05-05 11:36 | 23.71139 | 58.01081 | 37747 ft | 461 kts | 258° |
| 2026-05-05 11:37 | 23.70043 | 57.94203 | 37749 ft | 460 kts | 266° |
| 2026-05-05 11:37 | 23.70527 | 57.87293 | 37765 ft | 461 kts | 280° |
| 2026-05-05 11:38 | 23.71922 | 57.80466 | 37777 ft | 462 kts | 282° |
| 2026-05-05 11:38 | 23.73453 | 57.73659 | 37771 ft | 462 kts | 282° |
| 2026-05-05 11:39 | 23.74974 | 57.66836 | 37783 ft | 461 kts | 282° |
| 2026-05-05 11:39 | 23.76466 | 57.60009 | 37783 ft | 461 kts | 282° |
| 2026-05-05 11:40 | 23.77934 | 57.53237 | 37778 ft | 461 kts | 282° |
| 2026-05-05 11:40 | 23.79405 | 57.46426 | 37771 ft | 461 kts | 282° |
| 2026-05-05 11:41 | 23.80876 | 57.39602 | 37785 ft | 461 kts | 282° |
| 2026-05-05 11:41 | 23.82344 | 57.32784 | 37795 ft | 461 kts | 282° |
| 2026-05-05 11:42 | 23.83808 | 57.25973 | 37784 ft | 460 kts | 282° |
| 2026-05-05 11:42 | 23.85268 | 57.19160 | 37803 ft | 460 kts | 282° |
| 2026-05-05 11:43 | 23.86716 | 57.12391 | 37725 ft | 459 kts | 282° |
| 2026-05-05 11:43 | 23.87440 | 57.09000 | 37483 ft | 457 kts | 282° |
| 2026-05-05 11:43 | 23.88160 | 57.05625 | 37223 ft | 456 kts | 282° |
| 2026-05-05 11:43 | 23.88879 | 57.02248 | 36969 ft | 457 kts | 282° |
| 2026-05-05 11:44 | 23.89600 | 56.98853 | 36731 ft | 458 kts | 282° |
| 2026-05-05 11:44 | 23.90321 | 56.95462 | 36492 ft | 459 kts | 282° |
| 2026-05-05 11:44 | 23.91043 | 56.92061 | 36243 ft | 459 kts | 282° |
| 2026-05-05 11:44 | 23.91765 | 56.88656 | 35996 ft | 460 kts | 282° |
| 2026-05-05 11:45 | 23.92488 | 56.85242 | 35759 ft | 461 kts | 282° |
| 2026-05-05 11:45 | 23.93209 | 56.81833 | 35495 ft | 460 kts | 282° |
| 2026-05-05 11:45 | 23.93929 | 56.78427 | 34985 ft | 458 kts | 282° |
| 2026-05-05 11:45 | 23.94642 | 56.75048 | 34505 ft | 455 kts | 282° |
| 2026-05-05 11:46 | 23.95351 | 56.71685 | 34001 ft | 453 kts | 283° |
| 2026-05-05 11:46 | 23.96047 | 56.68378 | 33452 ft | 451 kts | 283° |
| 2026-05-05 11:46 | 23.96750 | 56.65041 | 32932 ft | 448 kts | 282° |
| 2026-05-05 11:46 | 23.97447 | 56.61729 | 32422 ft | 445 kts | 282° |
| 2026-05-05 11:47 | 23.98141 | 56.58426 | 31925 ft | 443 kts | 282° |
| 2026-05-05 11:47 | 23.98828 | 56.55157 | 31435 ft | 440 kts | 282° |
| 2026-05-05 11:47 | 23.99503 | 56.51938 | 30941 ft | 438 kts | 282° |
| 2026-05-05 11:47 | 24.00180 | 56.48699 | 30450 ft | 436 kts | 282° |
| 2026-05-05 11:48 | 24.01522 | 56.42266 | 29412 ft | 431 kts | 282° |
| 2026-05-05 11:48 | 24.02186 | 56.39076 | 28907 ft | 428 kts | 282° |
| 2026-05-05 11:48 | 24.02843 | 56.35919 | 28435 ft | 425 kts | 282° |
| 2026-05-05 11:49 | 24.03495 | 56.32781 | 27950 ft | 422 kts | 282° |
| 2026-05-05 11:49 | 24.04144 | 56.29662 | 27469 ft | 419 kts | 282° |
| 2026-05-05 11:49 | 24.04977 | 56.26604 | 27009 ft | 417 kts | 288° |
| 2026-05-05 11:49 | 24.05952 | 56.23619 | 26535 ft | 415 kts | 289° |
| 2026-05-05 11:50 | 24.06962 | 56.20674 | 26056 ft | 412 kts | 290° |
| 2026-05-05 11:50 | 24.07978 | 56.17784 | 25599 ft | 411 kts | 290° |
| 2026-05-05 11:50 | 24.09011 | 56.14872 | 25110 ft | 409 kts | 290° |
| 2026-05-05 11:50 | 24.10040 | 56.11975 | 24629 ft | 408 kts | 290° |
| 2026-05-05 11:51 | 24.11061 | 56.09088 | 24133 ft | 407 kts | 290° |
| 2026-05-05 11:51 | 24.12079 | 56.06197 | 23649 ft | 406 kts | 290° |
| 2026-05-05 11:51 | 24.13087 | 56.03324 | 23115 ft | 404 kts | 290° |
| 2026-05-05 11:51 | 24.14094 | 56.00451 | 22594 ft | 401 kts | 290° |
| 2026-05-05 11:52 | 24.15089 | 55.97607 | 22115 ft | 398 kts | 290° |
| 2026-05-05 11:52 | 24.16074 | 55.94788 | 21617 ft | 395 kts | 290° |
| 2026-05-05 11:52 | 24.17053 | 55.91987 | 21125 ft | 392 kts | 290° |
| 2026-05-05 11:52 | 24.18023 | 55.89204 | 20656 ft | 389 kts | 291° |
| 2026-05-05 11:53 | 24.18985 | 55.86447 | 20178 ft | 386 kts | 291° |
| 2026-05-05 11:53 | 24.19929 | 55.83738 | 19708 ft | 384 kts | 291° |
| 2026-05-05 11:53 | 24.20870 | 55.81010 | 19235 ft | 382 kts | 290° |
| 2026-05-05 11:53 | 24.21667 | 55.78237 | 18753 ft | 381 kts | 287° |
| 2026-05-05 11:54 | 24.22395 | 55.75454 | 18310 ft | 379 kts | 285° |
| 2026-05-05 11:54 | 24.23084 | 55.72677 | 17809 ft | 377 kts | 285° |
| 2026-05-05 11:54 | 24.23754 | 55.69912 | 17335 ft | 374 kts | 285° |
| 2026-05-05 11:54 | 24.24192 | 55.68087 | 17029 ft | 372 kts | 285° |
| 2026-05-05 11:55 | 24.24846 | 55.65357 | 16579 ft | 369 kts | 285° |
| 2026-05-05 11:55 | 24.25495 | 55.62651 | 16130 ft | 365 kts | 285° |
| 2026-05-05 11:55 | 24.26342 | 55.59094 | 15555 ft | 361 kts | 283° |
| 2026-05-05 11:55 | 24.26707 | 55.57281 | 15268 ft | 359 kts | 282° |
| 2026-05-05 11:56 | 24.27198 | 55.54613 | 14830 ft | 356 kts | 281° |
| 2026-05-05 11:56 | 24.27689 | 55.51961 | 14401 ft | 353 kts | 282° |
| 2026-05-05 11:56 | 24.28174 | 55.49376 | 14098 ft | 347 kts | 282° |
| 2026-05-05 11:56 | 24.28657 | 55.46835 | 13983 ft | 334 kts | 282° |
| 2026-05-05 11:57 | 24.29126 | 55.44382 | 13857 ft | 323 kts | 282° |
| 2026-05-05 11:57 | 24.29580 | 55.42010 | 13651 ft | 315 kts | 282° |
| 2026-05-05 11:57 | 24.30031 | 55.39658 | 13238 ft | 313 kts | 282° |
| 2026-05-05 11:57 | 24.30253 | 55.37300 | 12900 ft | 310 kts | 266° |
| 2026-05-05 11:58 | 24.29670 | 55.35048 | 12780 ft | 310 kts | 241° |
| 2026-05-05 11:58 | 24.28431 | 55.33149 | 12759 ft | 311 kts | 231° |
| 2026-05-05 11:58 | 24.27027 | 55.31338 | 12677 ft | 310 kts | 230° |
| 2026-05-05 11:58 | 24.25617 | 55.29539 | 12172 ft | 312 kts | 230° |
| 2026-05-05 11:59 | 24.24202 | 55.27720 | 11675 ft | 315 kts | 230° |
| 2026-05-05 11:59 | 24.22783 | 55.25888 | 11266 ft | 314 kts | 230° |
| 2026-05-05 11:59 | 24.21383 | 55.24076 | 10948 ft | 309 kts | 230° |
| 2026-05-05 11:59 | 24.20002 | 55.22288 | 10676 ft | 306 kts | 230° |
| 2026-05-05 12:00 | 24.18629 | 55.20505 | 10403 ft | 306 kts | 230° |
| 2026-05-05 12:00 | 24.17258 | 55.18728 | 10134 ft | 305 kts | 230° |
| 2026-05-05 12:00 | 24.15908 | 55.16977 | 9972 ft | 304 kts | 230° |
| 2026-05-05 12:00 | 24.14543 | 55.15207 | 9834 ft | 304 kts | 230° |
| 2026-05-05 12:01 | 24.13182 | 55.13441 | 9611 ft | 303 kts | 230° |
| 2026-05-05 12:01 | 24.11824 | 55.11682 | 9357 ft | 302 kts | 230° |
| 2026-05-05 12:01 | 24.10470 | 55.09930 | 9156 ft | 298 kts | 230° |
| 2026-05-05 12:01 | 24.09234 | 55.08178 | 9009 ft | 287 kts | 238° |
| 2026-05-05 12:02 | 24.08407 | 55.06181 | 8369 ft | 294 kts | 257° |
| 2026-05-05 12:02 | 24.08343 | 55.03972 | 8102 ft | 288 kts | 282° |
| 2026-05-05 12:02 | 24.09015 | 55.02058 | 7676 ft | 286 kts | 305° |
| 2026-05-05 12:02 | 24.10476 | 55.00613 | 7217 ft | 285 kts | 333° |
| 2026-05-05 12:03 | 24.12353 | 55.00092 | 6938 ft | 280 kts | 2° |
| 2026-05-05 12:03 | 24.14252 | 55.00534 | 6648 ft | 278 kts | 17° |
| 2026-05-05 12:03 | 24.16100 | 55.00987 | 6507 ft | 267 kts | 1° |
| 2026-05-05 12:03 | 24.17825 | 55.00489 | 6399 ft | 254 kts | 327° |
| 2026-05-05 12:04 | 24.19118 | 54.99233 | 6308 ft | 244 kts | 313° |
| 2026-05-05 12:04 | 24.20171 | 54.97825 | 6265 ft | 234 kts | 308° |
| 2026-05-05 12:04 | 24.21137 | 54.96404 | 6310 ft | 231 kts | 308° |
| 2026-05-05 12:04 | 24.22081 | 54.95046 | 6261 ft | 223 kts | 309° |
| 2026-05-05 12:05 | 24.23046 | 54.93699 | 6050 ft | 221 kts | 309° |
| 2026-05-05 12:05 | 24.23994 | 54.92369 | 5738 ft | 221 kts | 309° |
| 2026-05-05 12:05 | 24.24927 | 54.91053 | 5391 ft | 221 kts | 309° |
| 2026-05-05 12:05 | 24.25875 | 54.89716 | 4999 ft | 223 kts | 309° |
| 2026-05-05 12:06 | 24.26824 | 54.88377 | 4648 ft | 222 kts | 309° |
| 2026-05-05 12:06 | 24.27765 | 54.87050 | 4345 ft | 219 kts | 309° |
| 2026-05-05 12:06 | 24.28693 | 54.85743 | 4062 ft | 217 kts | 309° |
| 2026-05-05 12:06 | 24.29616 | 54.84439 | 3799 ft | 216 kts | 309° |
| 2026-05-05 12:07 | 24.30535 | 54.83141 | 3546 ft | 215 kts | 309° |
| 2026-05-05 12:07 | 24.31453 | 54.81848 | 3272 ft | 213 kts | 309° |
| 2026-05-05 12:07 | 24.32352 | 54.80581 | 3012 ft | 207 kts | 309° |
| 2026-05-05 12:07 | 24.33220 | 54.79353 | 2754 ft | 200 kts | 309° |
| 2026-05-05 12:08 | 24.34061 | 54.78167 | 2522 ft | 195 kts | 309° |
| 2026-05-05 12:08 | 24.34883 | 54.77004 | 2275 ft | 189 kts | 309° |
| 2026-05-05 12:08 | 24.35688 | 54.75869 | 2033 ft | 187 kts | 310° |
| 2026-05-05 12:08 | 24.36450 | 54.74792 | 1814 ft | 174 kts | 309° |
| 2026-05-05 12:09 | 24.37173 | 54.73774 | 1602 ft | 165 kts | 309° |
| 2026-05-05 12:09 | 24.37850 | 54.72814 | 1382 ft | 150 kts | 309° |
| 2026-05-05 12:09 | 24.38471 | 54.71943 | 1234 ft | 142 kts | 309° |
| 2026-05-05 12:09 | 24.39076 | 54.71079 | 1110 ft | 143 kts | 307° |
| 2026-05-05 12:10 | 24.39675 | 54.70201 | 857 ft | 144 kts | 309° |
| 2026-05-05 12:10 | 24.40274 | 54.69363 | 674 ft | 138 kts | 308° |
| 2026-05-05 12:10 | 24.40870 | 54.68522 | 568 ft | 141 kts | 309° |
| 2026-05-05 12:10 | 24.41478 | 54.67682 | 353 ft | 138 kts | 307° |
| 2026-05-05 12:11 | 24.42067 | 54.66859 | 155 ft | 137 kts | 308° |
| 2026-05-05 12:11 | 24.42632 | 54.66060 | 86 ft | 123 kts | 309° |
| 2026-05-05 12:11 | 24.42999 | 54.65547 | 87 ft | 45 kts | 308° |
| 2026-05-05 12:11 | 24.43156 | 54.65326 | 88 ft | 35 kts | 308° |
| 2026-05-05 12:12 | 24.43301 | 54.65112 | 88 ft | 35 kts | 303° |
| 2026-05-05 12:12 | 24.43395 | 54.64870 | 84 ft | 35 kts | 282° |
| 2026-05-05 12:12 | 24.43423 | 54.64689 | 85 ft | 15 kts | 278° |
| 2026-05-05 12:12 | 24.43438 | 54.64569 | 83 ft | 17 kts | 277° |
| 2026-05-05 12:13 | 24.43433 | 54.64443 | 85 ft | 16 kts | 247° |
| 2026-05-05 12:13 | 24.43342 | 54.64380 | 84 ft | 17 kts | 177° |
| 2026-05-05 12:13 | 24.43249 | 54.64460 | 86 ft | 19 kts | 129° |
| 2026-05-05 12:13 | 24.43165 | 54.64578 | 87 ft | 21 kts | 127° |
| 2026-05-05 12:14 | 24.43072 | 54.64710 | 87 ft | 23 kts | 128° |
| 2026-05-05 12:14 | 24.42980 | 54.64840 | 86 ft | 18 kts | 127° |
| 2026-05-05 12:14 | 24.42923 | 54.64884 | 87 ft | 8 kts | 184° |
| 2026-05-05 12:14 | 24.42877 | 54.64846 | 87 ft | 9 kts | 229° |
| 2026-05-05 12:15 | 24.42853 | 54.64810 | 87 ft | 6 kts | 234° |
| 2026-05-05 12:15 | 24.42850 | 54.64806 | 87 ft | 0 kts | 234° |